sensor_id;sensor_type;location;lat;lon;timestamp;P1;durP1;ratioP1;P2;durP2;ratioP2
7460;SDS011;6757;52.258;12.840;2024-03-08T00:01:55;1.13;;;0.80;;
7460;SDS011;6757;52.258;12.840;2024-03-08T00:04:23;7.82;;;1.92;;
7460;SDS011;6757;52.258;12.840;2024-03-08T00:06:50;3.60;;;2.20;;
7460;SDS011;6757;52.258;12.840;2024-03-08T00:09:19;2.95;;;1.88;;
7460;SDS011;6757;52.258;12.840;2024-03-08T00:11:47;1.67;;;1.25;;
7460;SDS011;6757;52.258;12.840;2024-03-08T00:14:15;6.75;;;2.58;;
7460;SDS011;6757;52.258;12.840;2024-03-08T00:16:43;1.63;;;1.52;;
7460;SDS011;6757;52.258;12.840;2024-03-08T00:19:09;5.03;;;2.33;;
7460;SDS011;6757;52.258;12.840;2024-03-08T00:21:37;3.95;;;1.38;;
7460;SDS011;6757;52.258;12.840;2024-03-08T00:24:06;6.25;;;2.00;;
7460;SDS011;6757;52.258;12.840;2024-03-08T00:26:36;7.72;;;2.67;;
7460;SDS011;6757;52.258;12.840;2024-03-08T00:29:03;4.75;;;2.25;;
7460;SDS011;6757;52.258;12.840;2024-03-08T00:31:32;2.72;;;1.58;;
7460;SDS011;6757;52.258;12.840;2024-03-08T00:34:00;1.88;;;1.75;;
7460;SDS011;6757;52.258;12.840;2024-03-08T00:36:27;2.10;;;1.48;;
7460;SDS011;6757;52.258;12.840;2024-03-08T00:38:55;0.98;;;0.88;;
7460;SDS011;6757;52.258;12.840;2024-03-08T00:41:23;1.35;;;1.25;;
7460;SDS011;6757;52.258;12.840;2024-03-08T00:43:52;3.15;;;1.75;;
7460;SDS011;6757;52.258;12.840;2024-03-08T00:46:20;1.95;;;1.08;;
7460;SDS011;6757;52.258;12.840;2024-03-08T00:48:47;2.28;;;1.40;;
7460;SDS011;6757;52.258;12.840;2024-03-08T00:51:16;2.33;;;1.73;;
7460;SDS011;6757;52.258;12.840;2024-03-08T00:53:45;8.52;;;3.08;;
7460;SDS011;6757;52.258;12.840;2024-03-08T00:56:12;1.90;;;1.80;;
7460;SDS011;6757;52.258;12.840;2024-03-08T00:58:40;5.15;;;2.50;;
7460;SDS011;6757;52.258;12.840;2024-03-08T01:01:09;2.88;;;2.13;;
7460;SDS011;6757;52.258;12.840;2024-03-08T01:03:36;2.28;;;1.48;;
7460;SDS011;6757;52.258;12.840;2024-03-08T01:06:04;5.65;;;2.80;;
7460;SDS011;6757;52.258;12.840;2024-03-08T01:08:31;5.68;;;1.85;;
7460;SDS011;6757;52.258;12.840;2024-03-08T01:10:58;5.95;;;2.35;;
7460;SDS011;6757;52.258;12.840;2024-03-08T01:13:25;3.25;;;1.90;;
7460;SDS011;6757;52.258;12.840;2024-03-08T01:15:59;2.97;;;2.05;;
7460;SDS011;6757;52.258;12.840;2024-03-08T01:18:29;2.60;;;1.90;;
7460;SDS011;6757;52.258;12.840;2024-03-08T01:20:57;3.53;;;1.70;;
7460;SDS011;6757;52.258;12.840;2024-03-08T01:23:24;1.85;;;1.35;;
7460;SDS011;6757;52.258;12.840;2024-03-08T01:25:53;2.08;;;1.88;;
7460;SDS011;6757;52.258;12.840;2024-03-08T01:28:21;2.00;;;1.75;;
7460;SDS011;6757;52.258;12.840;2024-03-08T01:30:49;1.85;;;1.73;;
7460;SDS011;6757;52.258;12.840;2024-03-08T01:33:20;9.13;;;2.42;;
7460;SDS011;6757;52.258;12.840;2024-03-08T01:35:50;7.75;;;3.05;;
7460;SDS011;6757;52.258;12.840;2024-03-08T01:38:17;1.63;;;1.52;;
7460;SDS011;6757;52.258;12.840;2024-03-08T01:40:46;2.72;;;2.05;;
7460;SDS011;6757;52.258;12.840;2024-03-08T01:43:17;3.78;;;2.00;;
7460;SDS011;6757;52.258;12.840;2024-03-08T01:45:47;3.92;;;1.95;;
7460;SDS011;6757;52.258;12.840;2024-03-08T01:48:15;4.07;;;2.63;;
7460;SDS011;6757;52.258;12.840;2024-03-08T01:50:44;1.38;;;1.10;;
7460;SDS011;6757;52.258;12.840;2024-03-08T01:53:15;7.05;;;3.35;;
7460;SDS011;6757;52.258;12.840;2024-03-08T01:55:43;1.70;;;1.60;;
7460;SDS011;6757;52.258;12.840;2024-03-08T01:58:13;2.42;;;2.22;;
7460;SDS011;6757;52.258;12.840;2024-03-08T02:00:40;10.20;;;2.00;;
7460;SDS011;6757;52.258;12.840;2024-03-08T02:03:10;1.48;;;1.00;;
7460;SDS011;6757;52.258;12.840;2024-03-08T02:05:37;4.80;;;2.20;;
7460;SDS011;6757;52.258;12.840;2024-03-08T02:08:06;5.55;;;1.98;;
7460;SDS011;6757;52.258;12.840;2024-03-08T02:10:39;1.20;;;0.90;;
7460;SDS011;6757;52.258;12.840;2024-03-08T02:13:06;1.48;;;1.38;;
7460;SDS011;6757;52.258;12.840;2024-03-08T02:15:50;3.40;;;2.20;;
7460;SDS011;6757;52.258;12.840;2024-03-08T02:18:18;1.67;;;1.38;;
7460;SDS011;6757;52.258;12.840;2024-03-08T02:20:47;3.50;;;1.45;;
7460;SDS011;6757;52.258;12.840;2024-03-08T02:23:16;2.05;;;1.27;;
7460;SDS011;6757;52.258;12.840;2024-03-08T02:25:43;5.55;;;1.83;;
7460;SDS011;6757;52.258;12.840;2024-03-08T02:28:10;5.32;;;3.42;;
7460;SDS011;6757;52.258;12.840;2024-03-08T02:30:39;2.42;;;1.85;;
7460;SDS011;6757;52.258;12.840;2024-03-08T02:33:06;0.95;;;0.95;;
7460;SDS011;6757;52.258;12.840;2024-03-08T02:35:34;2.78;;;2.03;;
7460;SDS011;6757;52.258;12.840;2024-03-08T02:38:04;5.57;;;1.65;;
7460;SDS011;6757;52.258;12.840;2024-03-08T02:40:31;2.45;;;2.15;;
7460;SDS011;6757;52.258;12.840;2024-03-08T02:42:59;3.15;;;1.88;;
7460;SDS011;6757;52.258;12.840;2024-03-08T02:45:25;1.98;;;0.88;;
7460;SDS011;6757;52.258;12.840;2024-03-08T02:47:53;3.30;;;1.90;;
7460;SDS011;6757;52.258;12.840;2024-03-08T02:50:21;1.75;;;1.13;;
7460;SDS011;6757;52.258;12.840;2024-03-08T02:52:48;1.98;;;1.52;;
7460;SDS011;6757;52.258;12.840;2024-03-08T02:55:20;2.35;;;1.83;;
7460;SDS011;6757;52.258;12.840;2024-03-08T02:57:47;3.35;;;1.88;;
7460;SDS011;6757;52.258;12.840;2024-03-08T03:00:16;3.30;;;1.42;;
7460;SDS011;6757;52.258;12.840;2024-03-08T03:02:44;2.63;;;1.98;;
7460;SDS011;6757;52.258;12.840;2024-03-08T03:05:13;1.30;;;1.20;;
7460;SDS011;6757;52.258;12.840;2024-03-08T03:07:39;2.50;;;1.23;;
7460;SDS011;6757;52.258;12.840;2024-03-08T03:10:07;2.83;;;1.67;;
7460;SDS011;6757;52.258;12.840;2024-03-08T03:12:38;1.10;;;0.95;;
7460;SDS011;6757;52.258;12.840;2024-03-08T03:15:06;0.93;;;0.93;;
7460;SDS011;6757;52.258;12.840;2024-03-08T03:17:33;1.33;;;1.23;;
7460;SDS011;6757;52.258;12.840;2024-03-08T03:20:00;1.85;;;1.75;;
7460;SDS011;6757;52.258;12.840;2024-03-08T03:22:34;7.13;;;1.35;;
7460;SDS011;6757;52.258;12.840;2024-03-08T03:25:01;2.08;;;1.63;;
7460;SDS011;6757;52.258;12.840;2024-03-08T03:27:31;3.38;;;1.85;;
7460;SDS011;6757;52.258;12.840;2024-03-08T03:30:01;1.20;;;1.13;;
7460;SDS011;6757;52.258;12.840;2024-03-08T03:32:46;1.35;;;1.25;;
7460;SDS011;6757;52.258;12.840;2024-03-08T03:35:14;2.92;;;2.00;;
7460;SDS011;6757;52.258;12.840;2024-03-08T03:37:41;1.83;;;1.73;;
7460;SDS011;6757;52.258;12.840;2024-03-08T03:40:16;3.92;;;1.52;;
7460;SDS011;6757;52.258;12.840;2024-03-08T03:42:44;9.82;;;2.30;;
7460;SDS011;6757;52.258;12.840;2024-03-08T03:45:13;3.13;;;2.30;;
7460;SDS011;6757;52.258;12.840;2024-03-08T03:47:44;1.15;;;1.08;;
7460;SDS011;6757;52.258;12.840;2024-03-08T03:50:12;3.33;;;2.17;;
7460;SDS011;6757;52.258;12.840;2024-03-08T03:52:41;1.05;;;0.77;;
7460;SDS011;6757;52.258;12.840;2024-03-08T03:55:08;3.35;;;2.50;;
7460;SDS011;6757;52.258;12.840;2024-03-08T03:57:36;6.65;;;2.50;;
7460;SDS011;6757;52.258;12.840;2024-03-08T04:00:04;1.42;;;1.35;;
7460;SDS011;6757;52.258;12.840;2024-03-08T04:02:37;10.20;;;2.58;;
7460;SDS011;6757;52.258;12.840;2024-03-08T04:05:05;6.03;;;1.45;;
7460;SDS011;6757;52.258;12.840;2024-03-08T04:07:33;2.13;;;1.98;;
7460;SDS011;6757;52.258;12.840;2024-03-08T04:10:01;4.60;;;2.10;;
7460;SDS011;6757;52.258;12.840;2024-03-08T04:12:31;1.67;;;1.52;;
7460;SDS011;6757;52.258;12.840;2024-03-08T04:15:00;1.92;;;1.15;;
7460;SDS011;6757;52.258;12.840;2024-03-08T04:17:28;4.75;;;3.03;;
7460;SDS011;6757;52.258;12.840;2024-03-08T04:19:57;1.80;;;1.65;;
7460;SDS011;6757;52.258;12.840;2024-03-08T04:22:24;1.60;;;1.50;;
7460;SDS011;6757;52.258;12.840;2024-03-08T04:24:54;1.55;;;1.25;;
7460;SDS011;6757;52.258;12.840;2024-03-08T04:27:24;3.42;;;2.05;;
7460;SDS011;6757;52.258;12.840;2024-03-08T04:29:52;2.35;;;1.60;;
7460;SDS011;6757;52.258;12.840;2024-03-08T04:32:19;2.15;;;1.95;;
7460;SDS011;6757;52.258;12.840;2024-03-08T04:34:48;7.68;;;1.50;;
7460;SDS011;6757;52.258;12.840;2024-03-08T04:37:17;3.65;;;2.15;;
7460;SDS011;6757;52.258;12.840;2024-03-08T04:39:46;3.03;;;1.13;;
7460;SDS011;6757;52.258;12.840;2024-03-08T04:42:13;2.35;;;1.85;;
7460;SDS011;6757;52.258;12.840;2024-03-08T04:44:43;2.10;;;1.15;;
7460;SDS011;6757;52.258;12.840;2024-03-08T04:47:10;2.15;;;1.95;;
7460;SDS011;6757;52.258;12.840;2024-03-08T04:49:37;5.05;;;2.65;;
7460;SDS011;6757;52.258;12.840;2024-03-08T04:52:04;5.50;;;2.38;;
7460;SDS011;6757;52.258;12.840;2024-03-08T04:54:34;7.00;;;3.83;;
7460;SDS011;6757;52.258;12.840;2024-03-08T04:57:01;3.22;;;2.13;;
7460;SDS011;6757;52.258;12.840;2024-03-08T04:59:32;2.28;;;1.63;;
7460;SDS011;6757;52.258;12.840;2024-03-08T05:02:02;4.15;;;2.80;;
7460;SDS011;6757;52.258;12.840;2024-03-08T05:04:32;3.83;;;2.35;;
7460;SDS011;6757;52.258;12.840;2024-03-08T05:07:02;4.65;;;3.15;;
7460;SDS011;6757;52.258;12.840;2024-03-08T05:09:29;3.70;;;2.00;;
7460;SDS011;6757;52.258;12.840;2024-03-08T05:11:59;2.55;;;1.02;;
7460;SDS011;6757;52.258;12.840;2024-03-08T05:14:26;0.85;;;0.73;;
7460;SDS011;6757;52.258;12.840;2024-03-08T05:16:54;4.90;;;1.65;;
7460;SDS011;6757;52.258;12.840;2024-03-08T05:19:21;2.63;;;2.15;;
7460;SDS011;6757;52.258;12.840;2024-03-08T05:21:49;1.00;;;0.95;;
7460;SDS011;6757;52.258;12.840;2024-03-08T05:24:17;1.98;;;1.13;;
7460;SDS011;6757;52.258;12.840;2024-03-08T05:26:45;10.18;;;2.83;;
7460;SDS011;6757;52.258;12.840;2024-03-08T05:29:14;2.72;;;1.67;;
7460;SDS011;6757;52.258;12.840;2024-03-08T05:31:43;1.65;;;1.40;;
7460;SDS011;6757;52.258;12.840;2024-03-08T05:34:13;6.18;;;1.63;;
7460;SDS011;6757;52.258;12.840;2024-03-08T05:36:40;1.73;;;1.27;;
7460;SDS011;6757;52.258;12.840;2024-03-08T05:39:09;2.15;;;1.95;;
7460;SDS011;6757;52.258;12.840;2024-03-08T05:41:37;4.20;;;2.67;;
7460;SDS011;6757;52.258;12.840;2024-03-08T05:44:04;3.63;;;1.42;;
7460;SDS011;6757;52.258;12.840;2024-03-08T05:46:34;6.30;;;2.47;;
7460;SDS011;6757;52.258;12.840;2024-03-08T05:49:01;2.17;;;1.58;;
7460;SDS011;6757;52.258;12.840;2024-03-08T05:51:30;7.45;;;2.00;;
7460;SDS011;6757;52.258;12.840;2024-03-08T05:53:59;3.53;;;1.77;;
7460;SDS011;6757;52.258;12.840;2024-03-08T05:56:27;3.10;;;2.10;;
7460;SDS011;6757;52.258;12.840;2024-03-08T05:58:55;7.97;;;2.60;;
7460;SDS011;6757;52.258;12.840;2024-03-08T06:01:23;4.32;;;3.03;;
7460;SDS011;6757;52.258;12.840;2024-03-08T06:03:51;2.95;;;2.08;;
7460;SDS011;6757;52.258;12.840;2024-03-08T06:06:20;7.20;;;4.05;;
7460;SDS011;6757;52.258;12.840;2024-03-08T06:08:48;2.00;;;1.50;;
7460;SDS011;6757;52.258;12.840;2024-03-08T06:11:15;4.53;;;2.95;;
7460;SDS011;6757;52.258;12.840;2024-03-08T06:13:44;1.40;;;1.27;;
7460;SDS011;6757;52.258;12.840;2024-03-08T06:16:11;8.32;;;4.57;;
7460;SDS011;6757;52.258;12.840;2024-03-08T06:18:39;6.65;;;2.50;;
7460;SDS011;6757;52.258;12.840;2024-03-08T06:21:07;5.88;;;2.75;;
7460;SDS011;6757;52.258;12.840;2024-03-08T06:23:36;5.68;;;2.80;;
7460;SDS011;6757;52.258;12.840;2024-03-08T06:26:04;6.10;;;3.05;;
7460;SDS011;6757;52.258;12.840;2024-03-08T06:28:32;3.00;;;2.58;;
7460;SDS011;6757;52.258;12.840;2024-03-08T06:31:01;1.50;;;1.23;;
7460;SDS011;6757;52.258;12.840;2024-03-08T06:33:29;3.45;;;2.05;;
7460;SDS011;6757;52.258;12.840;2024-03-08T06:35:57;5.93;;;2.45;;
7460;SDS011;6757;52.258;12.840;2024-03-08T06:38:25;4.07;;;1.55;;
7460;SDS011;6757;52.258;12.840;2024-03-08T06:40:53;1.83;;;1.27;;
7460;SDS011;6757;52.258;12.840;2024-03-08T06:43:19;1.73;;;1.48;;
7460;SDS011;6757;52.258;12.840;2024-03-08T06:45:46;4.03;;;2.58;;
7460;SDS011;6757;52.258;12.840;2024-03-08T06:48:14;7.70;;;4.20;;
7460;SDS011;6757;52.258;12.840;2024-03-08T06:50:43;3.45;;;2.25;;
7460;SDS011;6757;52.258;12.840;2024-03-08T06:53:11;6.72;;;2.50;;
7460;SDS011;6757;52.258;12.840;2024-03-08T06:55:46;4.65;;;2.30;;
7460;SDS011;6757;52.258;12.840;2024-03-08T06:58:13;3.67;;;2.75;;
7460;SDS011;6757;52.258;12.840;2024-03-08T07:00:44;7.53;;;2.35;;
7460;SDS011;6757;52.258;12.840;2024-03-08T07:03:17;5.38;;;3.47;;
7460;SDS011;6757;52.258;12.840;2024-03-08T07:05:47;5.20;;;4.03;;
7460;SDS011;6757;52.258;12.840;2024-03-08T07:08:14;7.78;;;5.13;;
7460;SDS011;6757;52.258;12.840;2024-03-08T07:10:41;8.20;;;4.43;;
7460;SDS011;6757;52.258;12.840;2024-03-08T07:13:12;15.20;;;3.25;;
7460;SDS011;6757;52.258;12.840;2024-03-08T07:15:39;5.65;;;3.30;;
7460;SDS011;6757;52.258;12.840;2024-03-08T07:18:08;5.03;;;2.85;;
7460;SDS011;6757;52.258;12.840;2024-03-08T07:20:39;8.50;;;2.78;;
7460;SDS011;6757;52.258;12.840;2024-03-08T07:23:07;7.78;;;4.50;;
7460;SDS011;6757;52.258;12.840;2024-03-08T07:25:35;10.10;;;3.53;;
7460;SDS011;6757;52.258;12.840;2024-03-08T07:28:04;6.97;;;3.45;;
7460;SDS011;6757;52.258;12.840;2024-03-08T07:30:35;5.20;;;2.72;;
7460;SDS011;6757;52.258;12.840;2024-03-08T07:33:33;5.65;;;3.50;;
7460;SDS011;6757;52.258;12.840;2024-03-08T07:36:00;4.38;;;2.28;;
7460;SDS011;6757;52.258;12.840;2024-03-08T07:38:28;6.97;;;3.13;;
7460;SDS011;6757;52.258;12.840;2024-03-08T07:40:55;7.18;;;4.03;;
7460;SDS011;6757;52.258;12.840;2024-03-08T07:43:23;2.17;;;1.98;;
7460;SDS011;6757;52.258;12.840;2024-03-08T07:45:52;7.38;;;3.28;;
7460;SDS011;6757;52.258;12.840;2024-03-08T07:48:20;6.32;;;3.53;;
7460;SDS011;6757;52.258;12.840;2024-03-08T07:50:47;5.75;;;4.10;;
7460;SDS011;6757;52.258;12.840;2024-03-08T07:53:14;5.13;;;3.50;;
7460;SDS011;6757;52.258;12.840;2024-03-08T07:55:41;6.07;;;3.42;;
7460;SDS011;6757;52.258;12.840;2024-03-08T07:58:09;3.80;;;1.85;;
7460;SDS011;6757;52.258;12.840;2024-03-08T08:00:36;5.05;;;3.05;;
7460;SDS011;6757;52.258;12.840;2024-03-08T08:03:05;16.02;;;4.55;;
7460;SDS011;6757;52.258;12.840;2024-03-08T08:05:33;13.18;;;5.25;;
7460;SDS011;6757;52.258;12.840;2024-03-08T08:08:02;2.70;;;2.50;;
7460;SDS011;6757;52.258;12.840;2024-03-08T08:10:31;10.27;;;4.40;;
7460;SDS011;6757;52.258;12.840;2024-03-08T08:12:58;13.35;;;3.17;;
7460;SDS011;6757;52.258;12.840;2024-03-08T08:15:24;10.63;;;4.32;;
7460;SDS011;6757;52.258;12.840;2024-03-08T08:17:53;8.20;;;3.88;;
7460;SDS011;6757;52.258;12.840;2024-03-08T08:20:21;10.30;;;5.68;;
7460;SDS011;6757;52.258;12.840;2024-03-08T08:22:51;12.55;;;3.95;;
7460;SDS011;6757;52.258;12.840;2024-03-08T08:25:19;7.90;;;3.60;;
7460;SDS011;6757;52.258;12.840;2024-03-08T08:27:49;10.27;;;3.75;;
7460;SDS011;6757;52.258;12.840;2024-03-08T08:30:16;10.02;;;4.00;;
7460;SDS011;6757;52.258;12.840;2024-03-08T08:32:43;9.60;;;3.40;;
7460;SDS011;6757;52.258;12.840;2024-03-08T08:35:12;6.45;;;3.45;;
7460;SDS011;6757;52.258;12.840;2024-03-08T08:37:40;8.75;;;3.45;;
7460;SDS011;6757;52.258;12.840;2024-03-08T08:40:09;10.82;;;4.85;;
7460;SDS011;6757;52.258;12.840;2024-03-08T08:42:39;8.02;;;4.75;;
7460;SDS011;6757;52.258;12.840;2024-03-08T08:45:07;10.10;;;4.47;;
7460;SDS011;6757;52.258;12.840;2024-03-08T08:47:35;8.05;;;4.10;;
7460;SDS011;6757;52.258;12.840;2024-03-08T08:50:03;17.27;;;5.18;;
7460;SDS011;6757;52.258;12.840;2024-03-08T08:52:32;15.80;;;6.03;;
7460;SDS011;6757;52.258;12.840;2024-03-08T08:55:02;9.32;;;4.38;;
7460;SDS011;6757;52.258;12.840;2024-03-08T08:57:31;11.35;;;5.25;;
7460;SDS011;6757;52.258;12.840;2024-03-08T08:59:58;10.45;;;4.68;;
7460;SDS011;6757;52.258;12.840;2024-03-08T09:02:26;12.35;;;4.70;;
7460;SDS011;6757;52.258;12.840;2024-03-08T09:04:53;12.80;;;5.43;;
7460;SDS011;6757;52.258;12.840;2024-03-08T09:07:20;14.20;;;4.75;;
7460;SDS011;6757;52.258;12.840;2024-03-08T09:09:47;12.85;;;5.50;;
7460;SDS011;6757;52.258;12.840;2024-03-08T09:12:16;9.45;;;5.78;;
7460;SDS011;6757;52.258;12.840;2024-03-08T09:14:43;6.97;;;4.22;;
7460;SDS011;6757;52.258;12.840;2024-03-08T09:17:11;10.82;;;4.43;;
7460;SDS011;6757;52.258;12.840;2024-03-08T09:19:42;15.00;;;5.15;;
7460;SDS011;6757;52.258;12.840;2024-03-08T09:22:10;13.52;;;5.00;;
7460;SDS011;6757;52.258;12.840;2024-03-08T09:24:38;11.82;;;6.25;;
7460;SDS011;6757;52.258;12.840;2024-03-08T09:27:05;11.13;;;5.20;;
7460;SDS011;6757;52.258;12.840;2024-03-08T09:29:36;10.15;;;4.72;;
7460;SDS011;6757;52.258;12.840;2024-03-08T09:32:03;13.45;;;4.82;;
7460;SDS011;6757;52.258;12.840;2024-03-08T09:34:32;15.23;;;6.05;;
7460;SDS011;6757;52.258;12.840;2024-03-08T09:37:00;12.35;;;5.00;;
7460;SDS011;6757;52.258;12.840;2024-03-08T09:39:30;11.55;;;5.72;;
7460;SDS011;6757;52.258;12.840;2024-03-08T09:41:58;8.20;;;4.43;;
7460;SDS011;6757;52.258;12.840;2024-03-08T09:44:25;19.38;;;6.40;;
7460;SDS011;6757;52.258;12.840;2024-03-08T09:46:55;10.02;;;4.68;;
7460;SDS011;6757;52.258;12.840;2024-03-08T09:49:25;7.88;;;4.07;;
7460;SDS011;6757;52.258;12.840;2024-03-08T09:51:53;11.63;;;5.15;;
7460;SDS011;6757;52.258;12.840;2024-03-08T09:54:22;10.60;;;4.20;;
7460;SDS011;6757;52.258;12.840;2024-03-08T09:56:49;11.23;;;3.38;;
7460;SDS011;6757;52.258;12.840;2024-03-08T09:59:18;9.88;;;3.88;;
7460;SDS011;6757;52.258;12.840;2024-03-08T10:02:04;16.73;;;6.53;;
7460;SDS011;6757;52.258;12.840;2024-03-08T10:04:34;13.88;;;4.47;;
7460;SDS011;6757;52.258;12.840;2024-03-08T10:07:02;12.50;;;5.45;;
7460;SDS011;6757;52.258;12.840;2024-03-08T10:09:29;11.18;;;4.60;;
7460;SDS011;6757;52.258;12.840;2024-03-08T10:11:56;13.93;;;6.72;;
7460;SDS011;6757;52.258;12.840;2024-03-08T10:14:24;12.00;;;5.60;;
7460;SDS011;6757;52.258;12.840;2024-03-08T10:16:51;14.40;;;5.13;;
7460;SDS011;6757;52.258;12.840;2024-03-08T10:19:20;10.77;;;4.97;;
7460;SDS011;6757;52.258;12.840;2024-03-08T10:21:48;16.48;;;6.97;;
7460;SDS011;6757;52.258;12.840;2024-03-08T10:24:19;10.63;;;4.57;;
7460;SDS011;6757;52.258;12.840;2024-03-08T10:26:46;18.33;;;5.72;;
7460;SDS011;6757;52.258;12.840;2024-03-08T10:29:13;13.65;;;4.82;;
7460;SDS011;6757;52.258;12.840;2024-03-08T10:31:42;10.65;;;3.95;;
7460;SDS011;6757;52.258;12.840;2024-03-08T10:34:11;12.38;;;5.80;;
7460;SDS011;6757;52.258;12.840;2024-03-08T10:36:40;11.93;;;3.75;;
7460;SDS011;6757;52.258;12.840;2024-03-08T10:39:10;13.15;;;5.38;;
7460;SDS011;6757;52.258;12.840;2024-03-08T10:41:50;9.60;;;3.88;;
7460;SDS011;6757;52.258;12.840;2024-03-08T10:44:33;11.27;;;4.40;;
7460;SDS011;6757;52.258;12.840;2024-03-08T10:47:18;8.13;;;3.28;;
7460;SDS011;6757;52.258;12.840;2024-03-08T10:49:55;13.95;;;4.40;;
7460;SDS011;6757;52.258;12.840;2024-03-08T10:52:36;15.70;;;5.15;;
7460;SDS011;6757;52.258;12.840;2024-03-08T10:55:03;12.18;;;4.47;;
7460;SDS011;6757;52.258;12.840;2024-03-08T10:57:37;15.43;;;5.18;;
7460;SDS011;6757;52.258;12.840;2024-03-08T11:00:06;17.30;;;4.32;;
7460;SDS011;6757;52.258;12.840;2024-03-08T11:02:36;9.20;;;3.38;;
7460;SDS011;6757;52.258;12.840;2024-03-08T11:05:04;10.52;;;4.25;;
7460;SDS011;6757;52.258;12.840;2024-03-08T11:07:39;9.93;;;3.72;;
7460;SDS011;6757;52.258;12.840;2024-03-08T11:10:18;10.45;;;4.57;;
7460;SDS011;6757;52.258;12.840;2024-03-08T11:12:46;12.40;;;4.05;;
7460;SDS011;6757;52.258;12.840;2024-03-08T11:15:16;9.65;;;3.63;;
7460;SDS011;6757;52.258;12.840;2024-03-08T11:17:47;13.98;;;4.45;;
7460;SDS011;6757;52.258;12.840;2024-03-08T11:20:15;9.68;;;3.75;;
7460;SDS011;6757;52.258;12.840;2024-03-08T11:22:52;10.50;;;4.13;;
7460;SDS011;6757;52.258;12.840;2024-03-08T11:25:31;10.82;;;4.13;;
7460;SDS011;6757;52.258;12.840;2024-03-08T11:28:15;11.60;;;5.13;;
7460;SDS011;6757;52.258;12.840;2024-03-08T11:30:46;10.45;;;3.42;;
7460;SDS011;6757;52.258;12.840;2024-03-08T11:33:58;10.82;;;3.45;;
7460;SDS011;6757;52.258;12.840;2024-03-08T11:36:25;12.98;;;4.00;;
7460;SDS011;6757;52.258;12.840;2024-03-08T11:38:56;11.48;;;4.05;;
7460;SDS011;6757;52.258;12.840;2024-03-08T11:41:24;8.98;;;4.05;;
7460;SDS011;6757;52.258;12.840;2024-03-08T11:44:01;11.15;;;4.60;;
7460;SDS011;6757;52.258;12.840;2024-03-08T11:46:31;9.68;;;3.33;;
7460;SDS011;6757;52.258;12.840;2024-03-08T11:48:59;9.40;;;3.70;;
7460;SDS011;6757;52.258;12.840;2024-03-08T11:51:28;9.10;;;3.70;;
7460;SDS011;6757;52.258;12.840;2024-03-08T11:53:57;10.90;;;3.25;;
7460;SDS011;6757;52.258;12.840;2024-03-08T11:56:24;14.00;;;3.42;;
7460;SDS011;6757;52.258;12.840;2024-03-08T11:58:53;13.07;;;3.97;;
7460;SDS011;6757;52.258;12.840;2024-03-08T12:01:23;13.30;;;5.03;;
7460;SDS011;6757;52.258;12.840;2024-03-08T12:03:53;11.45;;;4.13;;
7460;SDS011;6757;52.258;12.840;2024-03-08T12:06:23;7.60;;;3.72;;
7460;SDS011;6757;52.258;12.840;2024-03-08T12:08:52;14.30;;;4.20;;
7460;SDS011;6757;52.258;12.840;2024-03-08T12:11:20;9.73;;;3.75;;
7460;SDS011;6757;52.258;12.840;2024-03-08T12:13:49;11.40;;;4.55;;
7460;SDS011;6757;52.258;12.840;2024-03-08T12:16:17;12.15;;;4.40;;
7460;SDS011;6757;52.258;12.840;2024-03-08T12:18:46;7.57;;;3.55;;
7460;SDS011;6757;52.258;12.840;2024-03-08T12:21:14;13.90;;;4.28;;
7460;SDS011;6757;52.258;12.840;2024-03-08T12:23:44;8.90;;;3.85;;
7460;SDS011;6757;52.258;12.840;2024-03-08T12:26:15;17.33;;;4.80;;
7460;SDS011;6757;52.258;12.840;2024-03-08T12:28:45;18.45;;;4.57;;
7460;SDS011;6757;52.258;12.840;2024-03-08T12:31:12;11.93;;;4.13;;
7460;SDS011;6757;52.258;12.840;2024-03-08T12:33:48;15.40;;;4.28;;
7460;SDS011;6757;52.258;12.840;2024-03-08T12:36:16;8.68;;;3.47;;
7460;SDS011;6757;52.258;12.840;2024-03-08T12:38:45;11.93;;;4.05;;
7460;SDS011;6757;52.258;12.840;2024-03-08T12:41:13;14.32;;;4.70;;
7460;SDS011;6757;52.258;12.840;2024-03-08T12:43:42;11.00;;;4.28;;
7460;SDS011;6757;52.258;12.840;2024-03-08T12:46:16;7.68;;;3.88;;
7460;SDS011;6757;52.258;12.840;2024-03-08T12:48:45;14.52;;;4.43;;
7460;SDS011;6757;52.258;12.840;2024-03-08T12:51:13;9.32;;;4.20;;
7460;SDS011;6757;52.258;12.840;2024-03-08T12:53:41;12.57;;;5.00;;
7460;SDS011;6757;52.258;12.840;2024-03-08T12:56:09;14.80;;;5.10;;
7460;SDS011;6757;52.258;12.840;2024-03-08T12:58:35;10.55;;;4.32;;
7460;SDS011;6757;52.258;12.840;2024-03-08T13:01:03;11.02;;;4.28;;
7460;SDS011;6757;52.258;12.840;2024-03-08T13:03:34;13.57;;;4.68;;
7460;SDS011;6757;52.258;12.840;2024-03-08T13:06:02;14.57;;;4.63;;
7460;SDS011;6757;52.258;12.840;2024-03-08T13:08:34;14.18;;;4.75;;
7460;SDS011;6757;52.258;12.840;2024-03-08T13:11:04;11.95;;;4.80;;
7460;SDS011;6757;52.258;12.840;2024-03-08T13:13:33;14.07;;;4.75;;
7460;SDS011;6757;52.258;12.840;2024-03-08T13:16:01;16.75;;;5.28;;
7460;SDS011;6757;52.258;12.840;2024-03-08T13:18:34;14.88;;;5.80;;
7460;SDS011;6757;52.258;12.840;2024-03-08T13:21:02;14.13;;;5.15;;
7460;SDS011;6757;52.258;12.840;2024-03-08T13:23:31;16.15;;;4.75;;
7460;SDS011;6757;52.258;12.840;2024-03-08T13:26:04;15.32;;;5.28;;
7460;SDS011;6757;52.258;12.840;2024-03-08T13:28:37;13.85;;;5.00;;
7460;SDS011;6757;52.258;12.840;2024-03-08T13:31:04;16.42;;;5.65;;
7460;SDS011;6757;52.258;12.840;2024-03-08T13:33:32;18.17;;;5.70;;
7460;SDS011;6757;52.258;12.840;2024-03-08T13:36:03;10.60;;;4.45;;
7460;SDS011;6757;52.258;12.840;2024-03-08T13:41:08;16.15;;;5.22;;
7460;SDS011;6757;52.258;12.840;2024-03-08T13:43:34;13.15;;;4.85;;
7460;SDS011;6757;52.258;12.840;2024-03-08T13:46:02;13.50;;;4.57;;
7460;SDS011;6757;52.258;12.840;2024-03-08T13:48:31;12.63;;;4.47;;
7460;SDS011;6757;52.258;12.840;2024-03-08T13:50:57;12.15;;;3.72;;
7460;SDS011;6757;52.258;12.840;2024-03-08T13:53:27;10.35;;;3.90;;
7460;SDS011;6757;52.258;12.840;2024-03-08T13:55:54;12.65;;;3.88;;
7460;SDS011;6757;52.258;12.840;2024-03-08T13:58:21;10.93;;;4.10;;
7460;SDS011;6757;52.258;12.840;2024-03-08T14:00:49;12.93;;;4.85;;
7460;SDS011;6757;52.258;12.840;2024-03-08T14:03:16;10.43;;;4.05;;
7460;SDS011;6757;52.258;12.840;2024-03-08T14:05:43;10.25;;;3.50;;
7460;SDS011;6757;52.258;12.840;2024-03-08T14:08:12;10.13;;;3.63;;
7460;SDS011;6757;52.258;12.840;2024-03-08T14:10:43;9.13;;;3.25;;
7460;SDS011;6757;52.258;12.840;2024-03-08T14:13:11;9.60;;;3.03;;
7460;SDS011;6757;52.258;12.840;2024-03-08T14:15:43;10.18;;;3.38;;
7460;SDS011;6757;52.258;12.840;2024-03-08T14:18:11;10.55;;;3.40;;
7460;SDS011;6757;52.258;12.840;2024-03-08T14:20:38;9.65;;;4.03;;
7460;SDS011;6757;52.258;12.840;2024-03-08T14:23:07;11.50;;;3.97;;
7460;SDS011;6757;52.258;12.840;2024-03-08T14:25:34;8.23;;;3.42;;
7460;SDS011;6757;52.258;12.840;2024-03-08T14:28:03;11.27;;;4.20;;
7460;SDS011;6757;52.258;12.840;2024-03-08T14:30:32;13.63;;;4.18;;
7460;SDS011;6757;52.258;12.840;2024-03-08T14:33:00;11.23;;;3.80;;
7460;SDS011;6757;52.258;12.840;2024-03-08T14:35:27;14.80;;;4.88;;
7460;SDS011;6757;52.258;12.840;2024-03-08T14:37:56;12.18;;;4.25;;
7460;SDS011;6757;52.258;12.840;2024-03-08T14:40:24;11.55;;;3.63;;
7460;SDS011;6757;52.258;12.840;2024-03-08T14:42:59;12.00;;;4.10;;
7460;SDS011;6757;52.258;12.840;2024-03-08T14:45:28;13.48;;;4.63;;
7460;SDS011;6757;52.258;12.840;2024-03-08T14:47:55;14.05;;;4.95;;
7460;SDS011;6757;52.258;12.840;2024-03-08T14:50:23;17.05;;;4.38;;
7460;SDS011;6757;52.258;12.840;2024-03-08T14:52:53;12.68;;;4.72;;
7460;SDS011;6757;52.258;12.840;2024-03-08T14:55:21;13.25;;;4.32;;
7460;SDS011;6757;52.258;12.840;2024-03-08T14:57:47;10.20;;;3.50;;
7460;SDS011;6757;52.258;12.840;2024-03-08T15:00:17;11.45;;;4.20;;
7460;SDS011;6757;52.258;12.840;2024-03-08T15:03:00;12.75;;;4.13;;
7460;SDS011;6757;52.258;12.840;2024-03-08T15:07:57;13.60;;;4.55;;
7460;SDS011;6757;52.258;12.840;2024-03-08T15:10:26;14.57;;;4.43;;
7460;SDS011;6757;52.258;12.840;2024-03-08T15:12:54;11.23;;;3.85;;